New York, New York
Current Conditions -  °F | °C
As of 8:51 PM on Monday 24 Nov 2014 (Local Time) from KNYC Reporting Station
Clear Clear  
Wind Chill: 65°   Ceiling: Unl
Heat Index: 65°   Visibility: 10mi
Dew Point: 55°   Wind: 5mph
Humidity: 70%   Direction: NA
Pressure: 29.73"   Gusts: NA
Location:  40.71°N, 74.01°W
Report Text: KNYC 250151Z AUTO VRB04KT 10SM CLR 18/13 A2973 RMK AO2 SLP060 T01830128 $
Loading
Personal Weather Stations






























Interactive Weather Map New forecast layout! Learn more

10-Day Weather Forecast

Advertisements
Track Severe Weather on mobile